createdAt,value
2022-10-18T00:00:55.845Z,13.80
2022-10-18T00:05:58.623Z,13.70
2022-10-18T00:11:01.538Z,13.60
2022-10-18T00:16:06.155Z,13.50
2022-10-18T00:21:14.818Z,13.40
2022-10-18T00:26:20.290Z,13.30
2022-10-18T00:31:27.974Z,13.30
2022-10-18T00:36:34.406Z,13.30
2022-10-18T00:41:38.266Z,13.20
2022-10-18T00:46:46.710Z,13.20
2022-10-18T00:52:03.798Z,13.10
2022-10-18T00:57:07.784Z,13.00
2022-10-18T01:02:11.211Z,12.90
2022-10-18T01:07:38.844Z,12.80
2022-10-18T01:13:02.649Z,12.80
2022-10-18T01:18:26.945Z,12.70
2022-10-18T01:23:41.438Z,12.60
2022-10-18T01:29:17.750Z,12.60
2022-10-18T01:34:21.465Z,12.50
2022-10-18T01:39:38.102Z,12.40
2022-10-18T01:44:44.203Z,12.40
2022-10-18T01:49:47.284Z,12.30
2022-10-18T01:54:50.232Z,12.30
2022-10-18T02:00:00.316Z,12.20
2022-10-18T02:05:03.027Z,12.20
2022-10-18T02:10:21.496Z,12.10
2022-10-18T02:15:41.356Z,12.10
2022-10-18T02:20:44.500Z,12.10
2022-10-18T02:25:47.574Z,12.00
2022-10-18T02:31:04.806Z,12.00
2022-10-18T02:36:38.307Z,11.90
2022-10-18T02:41:41.719Z,11.90
2022-10-18T02:46:45.436Z,11.80
2022-10-18T02:51:48.156Z,11.80
2022-10-18T02:56:51.016Z,11.80
2022-10-18T03:01:53.799Z,11.80
2022-10-18T03:06:56.561Z,11.80
2022-10-18T03:11:59.434Z,11.90
2022-10-18T03:17:02.131Z,11.90
2022-10-18T03:22:05.564Z,12.00
2022-10-18T03:27:08.347Z,12.00
2022-10-18T03:32:11.081Z,12.10
2022-10-18T03:37:13.826Z,12.20
2022-10-18T03:42:16.763Z,12.30
2022-10-18T03:47:19.591Z,12.30
2022-10-18T03:52:22.271Z,12.40
2022-10-18T03:57:25.078Z,12.50
2022-10-18T04:02:27.937Z,12.50
2022-10-18T04:12:37.440Z,12.70
2022-10-18T04:17:40.165Z,12.70
2022-10-18T04:22:42.905Z,12.80
2022-10-18T04:27:45.721Z,12.80
2022-10-18T04:32:48.532Z,12.90
2022-10-18T04:37:51.602Z,12.90
2022-10-18T04:42:54.315Z,12.90
2022-10-18T04:47:57.062Z,13.00
2022-10-18T04:52:59.755Z,13.00
2022-10-18T04:58:02.553Z,13.00
2022-10-18T05:03:05.408Z,13.10
2022-10-18T05:08:08.601Z,13.10
2022-10-18T05:13:11.298Z,13.10
2022-10-18T05:18:14.042Z,13.10
2022-10-18T05:23:16.768Z,13.20
2022-10-18T05:28:39.741Z,13.20
2022-10-18T05:33:42.311Z,13.20
2022-10-18T05:38:45.678Z,13.20
2022-10-18T05:43:48.420Z,13.20
2022-10-18T05:48:51.868Z,13.30
2022-10-18T05:53:54.945Z,13.30
2022-10-18T05:58:57.678Z,13.30
2022-10-18T06:04:00.464Z,13.40
2022-10-18T06:09:03.924Z,13.40
2022-10-18T06:14:07.721Z,13.50
2022-10-18T06:19:10.511Z,13.50
2022-10-18T06:24:13.278Z,13.60
2022-10-18T06:29:16.029Z,13.60
2022-10-18T06:34:18.806Z,13.70
2022-10-18T06:39:21.737Z,13.70
2022-10-18T06:44:24.513Z,13.80
2022-10-18T06:49:27.316Z,13.80
2022-10-18T06:54:30.047Z,13.90
2022-10-18T06:59:35.570Z,13.90
2022-10-18T07:04:38.282Z,14.00
2022-10-18T07:09:41.118Z,14.00
2022-10-18T07:14:44.219Z,14.10
2022-10-18T07:19:46.907Z,14.10
2022-10-18T07:24:49.751Z,14.20
2022-10-18T07:29:52.554Z,14.20
2022-10-18T07:34:55.273Z,14.30
2022-10-18T07:39:58.016Z,14.30
2022-10-18T07:45:00.714Z,14.40
2022-10-18T07:50:03.720Z,14.50
2022-10-18T07:55:06.663Z,14.60
2022-10-18T08:00:09.972Z,14.70
2022-10-18T08:05:14.218Z,14.80
2022-10-18T08:10:16.973Z,14.90
2022-10-18T08:15:21.899Z,15.00
2022-10-18T08:20:30.986Z,15.20
2022-10-18T08:25:34.108Z,15.30
2022-10-18T08:30:37.194Z,15.40
2022-10-18T08:35:39.876Z,15.50
2022-10-18T08:40:46.121Z,15.60
2022-10-18T08:45:51.248Z,15.70
2022-10-18T08:50:56.429Z,16.00
2022-10-18T08:56:05.227Z,16.30
2022-10-18T09:01:36.463Z,16.60
2022-10-18T09:07:04.353Z,16.90
2022-10-18T09:12:23.547Z,17.40
2022-10-18T09:17:53.699Z,17.60
2022-10-18T09:23:21.166Z,17.90
2022-10-18T09:28:54.253Z,18.10
2022-10-18T09:34:02.924Z,18.30
2022-10-18T09:39:11.540Z,18.50
2022-10-18T09:44:32.792Z,18.50
2022-10-18T09:49:44.652Z,18.30
2022-10-18T09:54:59.295Z,17.90
2022-10-18T10:00:04.785Z,17.10
2022-10-18T10:05:14.383Z,17.00
2022-10-18T10:10:29.278Z,16.80
2022-10-18T10:15:36.951Z,16.70
2022-10-18T10:20:53.777Z,16.70
2022-10-18T10:25:59.827Z,16.50
2022-10-18T10:31:30.231Z,16.60
2022-10-18T10:36:34.329Z,16.50
2022-10-18T10:41:37.976Z,16.50
2022-10-18T10:46:40.761Z,16.60
2022-10-18T10:51:44.197Z,16.60
2022-10-18T10:57:12.549Z,16.60
2022-10-18T11:02:18.222Z,16.30
2022-10-18T11:07:42.673Z,16.30
2022-10-18T11:13:01.615Z,16.30
2022-10-18T11:18:29.476Z,16.30
2022-10-18T11:23:34.226Z,16.00
2022-10-18T11:28:36.991Z,16.00
2022-10-18T11:34:15.548Z,16.10
2022-10-18T11:39:47.751Z,16.10
2022-10-18T11:45:15.248Z,16.10
2022-10-18T11:50:55.808Z,16.00
2022-10-18T11:56:04.673Z,16.00
2022-10-18T12:01:39.424Z,15.90
2022-10-18T12:06:44.469Z,15.70
2022-10-18T12:11:55.693Z,15.90
2022-10-18T12:17:35.823Z,15.90
2022-10-18T12:22:35.413Z,15.80
2022-10-18T12:27:48.063Z,15.70
2022-10-18T12:33:09.938Z,15.80
2022-10-18T12:38:27.055Z,15.60
2022-10-18T12:43:36.690Z,15.70
2022-10-18T12:48:43.189Z,15.70
2022-10-18T12:53:49.676Z,15.70
2022-10-18T12:58:52.388Z,15.60
2022-10-18T13:03:58.716Z,15.70
2022-10-18T13:09:18.546Z,15.70
2022-10-18T13:14:48.233Z,15.70
2022-10-18T13:20:28.517Z,15.80
2022-10-18T13:25:46.415Z,15.70
2022-10-18T13:31:18.920Z,15.80
2022-10-18T13:36:25.379Z,15.80
2022-10-18T13:41:34.484Z,15.80
2022-10-18T13:46:49.624Z,15.80
2022-10-18T13:52:09.048Z,15.80
2022-10-18T13:57:29.803Z,15.90
2022-10-18T14:02:52.998Z,15.90
2022-10-18T14:14:03.115Z,15.80
2022-10-18T14:19:27.709Z,15.90
2022-10-18T14:24:31.334Z,15.90
2022-10-18T14:29:34.082Z,15.70
2022-10-18T14:34:37.149Z,15.70
2022-10-18T14:39:39.884Z,15.60
2022-10-18T14:44:47.646Z,15.70
2022-10-18T14:49:54.375Z,15.70
2022-10-18T14:54:58.765Z,15.70
2022-10-18T15:00:05.839Z,15.70
2022-10-18T15:05:22.324Z,15.70
2022-10-18T15:10:31.114Z,15.70
2022-10-18T15:15:34.941Z,15.70
2022-10-18T15:20:43.017Z,15.70
2022-10-18T15:25:46.035Z,15.50
2022-10-18T15:30:48.936Z,15.50
2022-10-18T15:35:53.201Z,15.50
2022-10-18T15:40:56.486Z,15.40
2022-10-18T15:46:06.716Z,15.20
2022-10-18T15:51:47.528Z,15.30
2022-10-18T15:56:50.278Z,15.20
2022-10-18T16:01:54.038Z,15.30
2022-10-18T16:06:58.041Z,15.30
2022-10-18T16:12:00.784Z,15.30
2022-10-18T16:17:06.823Z,15.30
2022-10-18T16:27:16.639Z,15.20
2022-10-18T16:32:19.343Z,15.10
2022-10-18T16:37:22.006Z,15.00
2022-10-18T16:42:24.823Z,14.90
2022-10-18T16:47:27.547Z,14.80
2022-10-18T16:52:30.346Z,14.60
2022-10-18T16:57:33.248Z,14.60
2022-10-18T17:02:35.941Z,14.50
2022-10-18T17:07:38.706Z,14.40
2022-10-18T17:12:41.783Z,14.30
2022-10-18T17:17:45.085Z,14.20
2022-10-18T17:22:48.391Z,14.10
2022-10-18T17:27:51.070Z,14.10
2022-10-18T17:32:55.367Z,14.10
2022-10-18T17:37:58.614Z,14.10
2022-10-18T17:43:01.320Z,14.00
2022-10-18T17:48:04.118Z,14.10
2022-10-18T17:53:06.841Z,14.10
2022-10-18T17:58:10.235Z,14.10
2022-10-18T18:03:13.665Z,14.10
2022-10-18T18:08:16.544Z,14.10
2022-10-18T18:13:19.782Z,14.10
2022-10-18T18:18:22.665Z,14.10
2022-10-18T18:23:25.749Z,14.10
2022-10-18T18:28:28.488Z,14.20
2022-10-18T18:33:33.963Z,14.20
2022-10-18T18:38:39.032Z,14.10
2022-10-18T18:43:44.413Z,14.20
2022-10-18T18:48:47.541Z,14.20
2022-10-18T18:53:50.651Z,14.20
2022-10-18T18:58:53.839Z,14.20
2022-10-18T19:03:57.844Z,14.20
2022-10-18T19:09:04.017Z,14.20
2022-10-18T19:14:07.976Z,14.20
2022-10-18T19:19:20.381Z,14.20
2022-10-18T19:24:25.251Z,14.20
2022-10-18T19:29:31.479Z,14.20
2022-10-18T19:34:34.800Z,14.20
2022-10-18T19:39:37.750Z,14.20
2022-10-18T19:44:41.088Z,14.20
2022-10-18T19:49:43.930Z,14.20
2022-10-18T19:54:48.578Z,14.20
2022-10-18T19:59:56.027Z,14.20
2022-10-18T20:04:59.496Z,14.20
2022-10-18T20:10:03.441Z,14.10
2022-10-18T20:15:08.943Z,14.10
2022-10-18T20:20:12.063Z,14.10
2022-10-18T20:25:14.764Z,14.10
2022-10-18T20:30:17.573Z,14.00
2022-10-18T20:35:20.898Z,13.90
2022-10-18T20:40:23.650Z,14.00
2022-10-18T20:45:26.347Z,13.90
2022-10-18T20:50:29.054Z,13.80
2022-10-18T20:55:31.819Z,13.70
2022-10-18T21:00:35.184Z,13.60
2022-10-18T21:05:55.339Z,13.50
2022-10-18T21:11:25.587Z,13.40
2022-10-18T21:16:53.259Z,13.30
2022-10-18T21:22:19.038Z,13.10
2022-10-18T21:27:38.894Z,13.00
2022-10-18T21:32:49.814Z,12.90
2022-10-18T21:38:05.037Z,12.80
2022-10-18T21:43:22.826Z,12.80
2022-10-18T21:48:32.481Z,12.60
2022-10-18T21:53:54.769Z,12.60
2022-10-18T21:59:06.386Z,12.50
2022-10-18T22:04:48.131Z,12.40
2022-10-18T22:10:35.669Z,12.40
2022-10-18T22:15:40.873Z,12.40
2022-10-18T22:20:43.735Z,12.30
2022-10-18T22:25:46.483Z,12.40
2022-10-18T22:31:05.288Z,12.40
2022-10-18T22:36:31.677Z,12.50
2022-10-18T22:41:56.346Z,12.60
2022-10-18T22:47:12.065Z,12.60
2022-10-18T22:52:33.251Z,12.60
2022-10-18T22:57:53.953Z,12.60
2022-10-18T23:03:14.054Z,12.60
2022-10-18T23:08:23.441Z,12.60
2022-10-18T23:13:44.774Z,12.60
2022-10-18T23:18:59.308Z,12.50
2022-10-18T23:24:08.424Z,12.30
2022-10-18T23:29:15.404Z,12.20
2022-10-18T23:34:18.316Z,12.10
2022-10-18T23:39:23.608Z,12.00
2022-10-18T23:44:26.532Z,12.00
2022-10-18T23:49:29.237Z,11.80
2022-10-18T23:54:31.981Z,11.90
2022-10-18T23:59:34.685Z,11.90
